Time;durP1;ratioP1;P1;durP2;ratioP2;P2;SDS_P1;SDS_P2;PMS_P1;PMS_P2;Temp;Humidity;BMP_temperature;BMP_pressure;BME280_temperature;BME280_humidity;BME280_pressure;Samples;Min_cycle;Max_cycle;Signal;HPM_P1;HPM_P2
2022/01/19 00:00:18;;;;;;;8.95;3.00;;;;;;;4.74;86.45;100124.03;5016171;28;20014;-68
2022/01/19 00:02:43;;;;;;;9.50;3.30;;;;;;;4.60;85.58;100114.94;5017535;28;20018;-68
2022/01/19 00:05:11;;;;;;;7.85;3.70;;;;;;;4.65;85.99;100123.78;5016459;28;20014;-68
2022/01/19 00:07:36;;;;;;;7.38;4.30;;;;;;;4.59;86.70;100115.78;5020114;28;20022;-68
2022/01/19 00:10:05;;;;;;;10.35;4.22;;;;;;;4.56;86.33;100110.47;5015039;28;20041;-68
2022/01/19 00:12:32;;;;;;;8.70;4.63;;;;;;;4.49;87.20;100102.47;5015342;28;20330;-68
2022/01/19 00:14:57;;;;;;;10.57;4.40;;;;;;;4.44;86.52;100080.59;5015202;28;20042;-68
2022/01/19 00:17:23;;;;;;;7.95;4.90;;;;;;;4.48;87.45;100068.53;5016176;28;20037;-68
2022/01/19 00:19:48;;;;;;;14.25;4.57;;;;;;;4.45;86.82;100061.53;5013538;28;20023;-68
2022/01/19 00:22:14;;;;;;;8.23;4.38;;;;;;;4.58;86.12;100054.06;5012277;28;20018;-68
2022/01/19 00:24:41;;;;;;;15.18;5.60;;;;;;;4.53;86.38;100039.16;5017769;28;20029;-68
2022/01/19 00:27:07;;;;;;;7.15;4.18;;;;;;;4.58;86.24;100025.38;5015623;28;20057;-68
2022/01/19 00:29:32;;;;;;;10.40;3.83;;;;;;;4.41;86.81;100023.19;5015646;28;20076;-68
2022/01/19 00:31:57;;;;;;;9.13;3.67;;;;;;;4.31;87.48;100031.59;5014669;28;20028;-68
2022/01/19 00:34:24;;;;;;;7.43;3.60;;;;;;;4.56;87.15;100027.03;5014558;28;20046;-68
2022/01/19 00:36:50;;;;;;;6.57;3.30;;;;;;;4.53;86.23;100021.75;5014594;28;20034;-68
2022/01/19 00:39:15;;;;;;;8.27;3.97;;;;;;;4.45;86.90;100026.75;5014630;28;20329;-68
2022/01/19 00:41:41;;;;;;;10.98;4.63;;;;;;;4.20;87.75;100027.81;5013067;28;20033;-68
2022/01/19 00:44:06;;;;;;;7.38;4.35;;;;;;;4.09;87.06;100023.16;5016939;28;20029;-68
2022/01/19 00:46:32;;;;;;;10.20;4.93;;;;;;;4.03;87.78;100007.34;5014620;28;20026;-68
2022/01/19 00:48:57;;;;;;;8.13;4.38;;;;;;;3.96;87.84;99990.63;5015148;28;20022;-68
2022/01/19 00:51:22;;;;;;;15.15;4.65;;;;;;;3.93;88.33;99969.72;5014200;28;20314;-68
2022/01/19 00:53:49;;;;;;;6.47;4.07;;;;;;;3.71;89.40;99962.16;5014268;28;20022;-68
2022/01/19 00:56:14;;;;;;;11.07;4.70;;;;;;;3.66;89.57;99953.31;5018232;28;20089;-68
2022/01/19 00:58:40;;;;;;;16.02;5.65;;;;;;;3.58;90.54;99957.41;5016814;28;20072;-68
2022/01/19 01:01:05;;;;;;;7.85;4.63;;;;;;;3.61;90.33;99944.50;5013038;28;20022;-68
2022/01/19 01:03:31;;;;;;;10.20;4.72;;;;;;;3.48;90.25;99946.72;5014431;28;20029;-68
2022/01/19 01:05:56;;;;;;;9.18;5.15;;;;;;;3.46;90.54;99959.69;5012588;28;20030;-68
2022/01/19 01:08:21;;;;;;;15.40;5.65;;;;;;;3.45;91.04;99957.03;5017783;28;20048;-68
2022/01/19 01:10:48;;;;;;;14.30;5.80;;;;;;;3.48;91.08;99952.78;5012946;28;20022;-68
2022/01/19 01:16:05;;;;;;;9.68;4.78;;;;;;;3.34;91.13;99938.50;5014130;28;20033;-68
2022/01/19 01:18:33;;;;;;;14.73;5.45;;;;;;;3.21;91.34;99936.38;5016493;28;20025;-68
2022/01/19 01:20:59;;;;;;;9.02;4.47;;;;;;;3.18;91.86;99919.78;5015454;28;20040;-68
2022/01/19 01:23:28;;;;;;;14.75;6.60;;;;;;;3.24;91.56;99905.25;5015173;28;20026;-68
2022/01/19 01:25:54;;;;;;;15.02;7.00;;;;;;;3.18;91.79;99898.97;5014202;28;20063;-68
2022/01/19 01:28:20;;;;;;;11.10;5.65;;;;;;;3.17;91.54;99911.09;5012260;28;20046;-68
2022/01/19 01:30:46;;;;;;;9.85;5.82;;;;;;;3.08;91.57;99913.41;5016329;28;20041;-68
2022/01/19 01:33:12;;;;;;;14.15;5.95;;;;;;;3.08;92.08;99903.00;5012491;28;20022;-68
2022/01/19 01:35:38;;;;;;;15.65;6.38;;;;;;;2.94;92.07;99914.69;5011879;28;20036;-68
2022/01/19 01:38:05;;;;;;;14.35;5.85;;;;;;;2.84;92.29;99920.44;5013088;28;20018;-68
2022/01/19 01:40:33;;;;;;;11.25;5.30;;;;;;;2.75;92.89;99921.91;5014512;28;20021;-68
2022/01/19 01:43:00;;;;;;;16.45;7.05;;;;;;;2.64;92.92;99934.53;5016984;28;20340;-68
2022/01/19 01:45:29;;;;;;;13.30;6.78;;;;;;;2.47;92.98;99946.13;5015631;28;20073;-68
2022/01/19 01:48:05;;;;;;;14.68;6.32;;;;;;;2.38;93.66;99940.59;5016371;28;20025;-68
2022/01/19 01:53:27;;;;;;;12.15;5.90;;;;;;;2.14;95.00;99932.88;5014896;28;20085;-68
2022/01/19 01:56:04;;;;;;;9.82;5.50;;;;;;;2.07;95.60;99922.22;5012879;28;20377;-68
2022/01/19 01:58:33;;;;;;;12.48;5.20;;;;;;;1.80;95.49;99903.97;5016288;28;20022;-68
2022/01/19 02:00:59;;;;;;;10.30;5.43;;;;;;;1.80;95.86;99903.97;5013981;28;20085;-68
2022/01/19 02:03:24;;;;;;;14.73;6.07;;;;;;;1.81;95.91;99892.72;5017186;28;20017;-68
2022/01/19 02:08:37;;;;;;;10.13;4.90;;;;;;;1.73;96.30;99888.13;5014987;28;20056;-68
2022/01/19 02:24:03;;;;;;;17.40;7.00;;;;;;;1.14;96.44;99846.19;5010400;28;20018;-68
2022/01/19 02:26:45;;;;;;;12.75;6.50;;;;;;;1.12;97.34;99834.88;5011009;28;20022;-68
2022/01/19 02:36:35;;;;;;;16.42;6.50;;;;;;;1.28;98.25;99834.59;5012587;28;20210;-68
2022/01/19 02:40:29;;;;;;;20.10;5.43;;;;;;;0.97;97.55;99831.69;5009965;28;20340;-68
2022/01/19 02:50:58;;;;;;;18.73;6.38;;;;;;;0.69;97.08;99813.38;5012321;28;20050;-68
2022/01/19 02:53:23;;;;;;;13.70;6.75;;;;;;;0.56;97.51;99821.47;5013989;28;20018;-68
2022/01/19 02:55:49;;;;;;;6.95;3.65;;;;;;;0.49;97.78;99822.97;5014264;28;20356;-68
2022/01/19 02:58:18;;;;;;;15.80;5.57;;;;;;;0.48;97.89;99822.91;5015806;28;20018;-68
2022/01/19 03:08:56;;;;;;;8.43;5.25;;;;;;;0.07;99.31;99791.91;5015759;28;20045;-68
2022/01/19 03:11:24;;;;;;;16.50;5.93;;;;;;;0.19;99.80;99792.41;5011790;28;20081;-68
2022/01/19 03:13:50;;;;;;;8.82;4.63;;;;;;;0.20;99.96;99783.81;5014004;28;20022;-68
2022/01/19 03:16:18;;;;;;;13.63;4.63;;;;;;;0.08;99.46;99793.66;5017520;28;20033;-68
2022/01/19 03:18:44;;;;;;;9.10;5.57;;;;;;;0.05;99.66;99797.03;5009418;28;20029;-68
2022/01/19 03:21:10;;;;;;;13.02;5.13;;;;;;;0.03;99.75;99796.97;5016167;28;20073;-68
2022/01/19 03:23:35;;;;;;;9.35;5.55;;;;;;;0.10;99.52;99802.38;5014045;28;20033;-68
2022/01/19 03:26:05;;;;;;;13.77;5.32;;;;;;;-0.04;99.36;99805.31;5012025;28;20025;-68
2022/01/19 03:28:31;;;;;;;10.68;5.30;;;;;;;-0.11;98.97;99800.72;5012435;28;20066;-68
2022/01/19 03:30:56;;;;;;;12.60;4.93;;;;;;;-0.15;98.93;99795.34;5013185;28;20052;-68
2022/01/19 03:33:21;;;;;;;9.35;5.18;;;;;;;-0.14;98.99;99800.59;5011348;28;20029;-68
2022/01/19 03:35:47;;;;;;;15.07;5.07;;;;;;;-0.21;99.19;99803.75;5014734;28;20317;-68
2022/01/19 03:38:13;;;;;;;10.80;4.95;;;;;;;-0.15;99.13;99805.69;5013293;28;20019;-67
2022/01/19 03:40:38;;;;;;;14.52;5.55;;;;;;;-0.18;98.88;99803.84;5010411;28;20369;-67
2022/01/19 03:43:05;;;;;;;16.40;4.85;;;;;;;-0.22;98.75;99809.72;5011896;28;20022;-67
2022/01/19 03:45:33;;;;;;;11.05;5.32;;;;;;;-0.19;98.25;99804.66;5012118;28;20060;-67
2022/01/19 03:48:20;;;;;;;11.07;5.70;;;;;;;-0.44;98.47;99801.88;5013237;28;20026;-67
2022/01/19 03:50:46;;;;;;;10.20;4.70;;;;;;;-0.43;98.92;99803.66;5018654;28;20080;-67
2022/01/19 03:53:11;;;;;;;14.70;6.00;;;;;;;-0.48;100.00;99794.81;5018999;28;20025;-67
2022/01/19 03:55:37;;;;;;;10.13;5.53;;;;;;;-0.51;100.00;99799.84;5018201;28;20026;-67
2022/01/19 03:58:02;;;;;;;12.50;5.20;;;;;;;-0.52;100.00;99792.94;5017849;28;20037;-67
2022/01/19 04:00:30;;;;;;;9.98;5.55;;;;;;;-0.52;100.00;99792.94;5018231;28;20022;-67
2022/01/19 04:02:56;;;;;;;11.02;5.82;;;;;;;-0.57;100.00;99790.97;5015616;28;20030;-67
2022/01/19 04:05:26;;;;;;;15.43;5.25;;;;;;;-0.58;100.00;99791.78;5016654;28;20071;-67
2022/01/19 04:07:51;;;;;;;9.38;5.30;;;;;;;-0.53;99.93;99791.13;5015486;28;20026;-67
2022/01/19 04:10:17;;;;;;;8.65;4.88;;;;;;;-0.69;100.00;99787.88;5016381;28;20029;-67
2022/01/19 04:15:09;;;;;;;10.55;5.03;;;;;;;-0.57;100.00;99781.50;5013890;28;20033;-67
2022/01/19 04:17:37;;;;;;;14.77;5.80;;;;;;;-0.70;100.00;99776.63;5013977;28;20026;-67
2022/01/19 04:20:03;;;;;;;18.77;4.53;;;;;;;-0.79;100.00;99770.19;5014652;28;20072;-67
2022/01/19 04:22:28;;;;;;;10.55;4.30;;;;;;;-0.83;100.00;99758.84;5016078;28;20021;-67
2022/01/19 04:24:54;;;;;;;11.25;5.25;;;;;;;-0.79;100.00;99749.53;5016117;28;20033;-67
2022/01/19 04:29:50;;;;;;;9.45;5.40;;;;;;;-0.46;100.00;99750.91;5016580;28;20026;-67
2022/01/19 04:32:20;;;;;;;16.08;5.47;;;;;;;-0.53;100.00;99744.59;5016923;28;20062;-67
2022/01/19 04:34:48;;;;;;;11.80;6.22;;;;;;;-0.52;100.00;99741.22;5013526;28;20049;-67
2022/01/19 05:04:46;;;;;;;10.52;5.78;;;;;;;-0.14;100.00;99735.91;5015707;28;20102;-67
2022/01/19 05:06:39;;;;;;;8.73;4.13;;;;;;;-0.18;100.00;99733.97;5008952;28;20040;-67
2022/01/19 05:09:25;;;;;;;10.93;5.13;;;;;;;-0.26;100.00;99725.06;5016735;28;20041;-67
2022/01/19 05:14:35;;;;;;;12.13;5.85;;;;;;;-0.29;100.00;99724.94;5013392;28;20041;-67
2022/01/19 05:17:00;;;;;;;16.67;6.07;;;;;;;-0.29;100.00;99719.75;5015252;28;20468;-67
2022/01/19 05:19:26;;;;;;;11.30;6.25;;;;;;;-0.31;100.00;99721.38;5015962;28;20054;-67
2022/01/19 05:21:51;;;;;;;9.00;5.15;;;;;;;-0.35;100.00;99724.69;5010015;28;20222;-67
2022/01/19 05:24:17;;;;;;;11.32;6.05;;;;;;;-0.42;99.49;99722.66;5016977;28;20022;-67
2022/01/19 05:26:42;;;;;;;8.18;4.72;;;;;;;-0.49;99.75;99720.66;5014386;28;20334;-67
2022/01/19 05:29:08;;;;;;;11.40;5.80;;;;;;;-0.48;99.35;99726.69;5018606;28;20191;-67
2022/01/19 05:31:33;;;;;;;12.25;5.75;;;;;;;-0.40;99.86;99726.22;5017043;28;20245;-67
2022/01/19 05:33:59;;;;;;;17.33;6.75;;;;;;;-0.33;100.00;99723.03;5023827;28;20089;-67
2022/01/19 05:36:24;;;;;;;11.77;6.32;;;;;;;-0.55;98.76;99710.06;5022088;28;20025;-67
2022/01/19 05:38:50;;;;;;;11.57;6.30;;;;;;;-0.61;100.00;99716.66;5016281;28;20049;-67
2022/01/19 05:41:15;;;;;;;10.43;5.15;;;;;;;-0.64;100.00;99717.44;5025133;28;20009;-67
2022/01/19 05:43:41;;;;;;;10.07;5.75;;;;;;;-0.75;100.00;99712.63;5025280;28;20089;-67
2022/01/19 05:46:06;;;;;;;19.00;6.75;;;;;;;-0.82;100.00;99711.50;5024987;28;20318;-67
2022/01/19 05:48:31;;;;;;;18.75;8.65;;;;;;;-0.87;100.00;99705.25;5024933;28;20116;-67
2022/01/19 05:50:57;;;;;;;15.82;6.90;;;;;;;-0.79;100.00;99709.03;5024899;28;20029;-67
2022/01/19 05:53:22;;;;;;;13.65;6.88;;;;;;;-0.76;100.00;99709.16;5024873;28;20025;-67
2022/01/19 05:55:48;;;;;;;11.32;5.30;;;;;;;-0.85;100.00;99701.00;5024848;28;20025;-67
2022/01/19 05:58:14;;;;;;;12.63;5.07;;;;;;;-0.84;100.00;99702.81;5024770;28;20209;-67
2022/01/19 06:00:39;;;;;;;16.05;6.95;;;;;;;-0.94;99.90;99697.19;5024735;28;20072;-67
2022/01/19 06:03:05;;;;;;;9.02;5.50;;;;;;;-0.92;99.75;99711.91;5024662;28;20194;-67
2022/01/19 06:05:32;;;;;;;13.07;6.30;;;;;;;-0.93;99.54;99705.00;5024920;28;20313;-67
2022/01/19 06:10:44;;;;;;;14.25;5.10;;;;;;;-1.07;99.03;99703.53;5024563;28;20237;-67
2022/01/19 06:13:17;;;;;;;14.50;5.38;;;;;;;-1.13;99.16;99700.69;5024576;28;20029;-67
2022/01/19 06:15:45;;;;;;;16.25;6.30;;;;;;;-1.14;99.27;99688.56;5024536;28;20369;-67
2022/01/19 06:18:11;;;;;;;12.38;5.65;;;;;;;-1.19;99.82;99692.66;5024454;28;20032;-67
2022/01/19 06:20:37;;;;;;;11.52;6.57;;;;;;;-1.36;100.00;99685.88;5024432;28;20025;-67
2022/01/19 06:23:02;;;;;;;12.27;5.70;;;;;;;-1.36;100.00;99696.19;5024645;28;20328;-67
2022/01/19 06:25:28;;;;;;;9.23;5.47;;;;;;;-1.29;100.00;99698.25;5024300;28;20221;-67
2022/01/19 06:27:53;;;;;;;11.20;6.25;;;;;;;-1.27;100.00;99696.59;5024151;28;20351;-67
2022/01/19 06:30:19;;;;;;;11.15;6.40;;;;;;;-1.38;100.00;99687.53;5024246;28;20026;-67
2022/01/19 06:32:45;;;;;;;10.77;5.93;;;;;;;-1.33;100.00;99693.75;5024284;28;20033;-67
2022/01/19 06:35:11;;;;;;;17.02;6.25;;;;;;;-1.40;100.00;99699.47;5023362;28;20333;-67
2022/01/19 06:37:36;;;;;;;8.90;5.43;;;;;;;-1.37;100.00;99689.28;5023518;28;20345;-67
2022/01/19 06:40:04;;;;;;;12.10;6.32;;;;;;;-1.42;99.82;99695.06;5024353;28;20021;-67
2022/01/19 06:42:30;;;;;;;9.68;5.13;;;;;;;-1.42;99.76;99700.22;5024109;28;20030;-67
2022/01/19 06:44:55;;;;;;;11.30;6.47;;;;;;;-1.47;99.88;99696.53;5024124;28;20344;-67
2022/01/19 06:47:21;;;;;;;11.90;6.40;;;;;;;-1.47;99.80;99694.84;5024085;28;20026;-67
2022/01/19 06:49:46;;;;;;;17.58;6.15;;;;;;;-1.49;99.84;99693.03;5024020;28;20049;-67
2022/01/19 06:52:12;;;;;;;13.05;5.55;;;;;;;-1.54;99.66;99703.16;5024018;28;20026;-67
2022/01/19 06:54:37;;;;;;;15.88;6.40;;;;;;;-1.42;99.27;99700.22;5024034;28;20026;-67
2022/01/19 06:57:03;;;;;;;11.82;5.78;;;;;;;-1.53;98.80;99702.31;5022873;28;20288;-67
2022/01/19 06:59:29;;;;;;;9.30;4.63;;;;;;;-1.49;99.16;99703.34;5023059;28;20053;-67
2022/01/19 07:01:54;;;;;;;16.05;5.60;;;;;;;-1.40;98.82;99703.75;5023021;28;20018;-67
2022/01/19 07:04:20;;;;;;;13.10;5.72;;;;;;;-1.49;98.78;99703.34;5022964;28;20021;-67
2022/01/19 07:06:45;;;;;;;11.63;6.65;;;;;;;-1.49;99.08;99704.22;5023232;28;20086;-67
2022/01/19 07:09:11;;;;;;;9.82;5.32;;;;;;;-1.47;98.82;99705.19;5023161;28;20241;-67
2022/01/19 07:11:36;;;;;;;9.60;5.93;;;;;;;-1.46;98.71;99693.16;5022557;28;20037;-67
2022/01/19 07:14:04;;;;;;;10.57;5.57;;;;;;;-1.50;98.84;99692.13;5022891;28;20060;-67
2022/01/19 07:16:29;;;;;;;11.30;5.50;;;;;;;-1.42;98.93;99685.63;5022859;28;20064;-67
2022/01/19 07:18:54;;;;;;;12.98;5.72;;;;;;;-1.40;99.06;99689.16;5022866;28;20033;-67
2022/01/19 07:21:20;;;;;;;10.45;5.80;;;;;;;-1.45;99.00;99695.81;5022855;28;20022;-67
2022/01/19 07:23:45;;;;;;;13.18;6.43;;;;;;;-1.38;99.19;99691.78;5022184;28;20029;-67
2022/01/19 07:26:11;;;;;;;12.50;6.55;;;;;;;-1.32;99.03;99698.13;5026563;28;20029;-67
2022/01/19 07:28:36;;;;;;;21.30;6.65;;;;;;;-1.43;98.86;99694.16;5027322;28;20131;-67
2022/01/19 07:31:02;;;;;;;17.65;8.30;;;;;;;-1.35;99.79;99697.09;5009980;28;20038;-67
2022/01/19 07:33:27;;;;;;;15.30;8.60;;;;;;;-1.06;100.00;99701.81;5008081;28;20033;-67
2022/01/19 07:35:53;;;;;;;18.90;9.10;;;;;;;-0.90;100.00;99699.97;5007746;28;20381;-67
2022/01/19 07:38:19;;;;;;;17.55;9.57;;;;;;;-0.75;100.00;99704.88;5007679;28;20222;-67
2022/01/19 07:40:44;;;;;;;15.40;7.43;;;;;;;-0.64;100.00;99698.44;5007678;28;20321;-67
2022/01/19 07:43:10;;;;;;;25.75;10.80;;;;;;;-0.32;100.00;99701.53;5007922;28;20058;-67
2022/01/19 07:45:35;;;;;;;22.13;10.73;;;;;;;-0.04;100.00;99706.97;5007595;28;20022;-67
2022/01/19 07:48:01;;;;;;;24.75;10.77;;;;;;;0.09;100.00;99702.28;5007822;28;20106;-67
2022/01/19 07:50:26;;;;;;;28.05;10.32;;;;;;;0.14;100.00;99696.44;5007524;28;20053;-67
2022/01/19 07:52:52;;;;;;;25.33;9.73;;;;;;;0.25;100.00;99696.84;5007750;28;20034;-67
2022/01/19 07:55:18;;;;;;;19.95;10.77;;;;;;;0.34;100.00;99700.66;5007441;28;20214;-67
2022/01/19 07:57:48;;;;;;;27.67;12.98;;;;;;;0.36;100.00;99692.94;5007432;28;20033;-67
2022/01/19 08:00:14;;;;;;;26.00;11.52;;;;;;;0.47;100.00;99686.47;5007906;28;20206;-67
2022/01/19 08:02:40;;;;;;;29.48;13.90;;;;;;;0.60;100.00;99688.69;5007230;28;20026;-67
2022/01/19 08:05:07;;;;;;;29.65;12.98;;;;;;;0.70;100.00;99678.72;5007327;28;20022;-67
2022/01/19 08:07:33;;;;;;;25.50;11.52;;;;;;;0.71;100.00;99676.97;5007118;28;20030;-67
2022/01/19 08:09:59;;;;;;;23.83;11.68;;;;;;;0.75;100.00;99684.03;5007049;28;20029;-67
2022/01/19 08:12:25;;;;;;;26.65;12.75;;;;;;;0.82;100.00;99675.69;5007384;28;20026;-67
2022/01/19 08:14:50;;;;;;;28.15;11.45;;;;;;;0.91;100.00;99682.03;5007049;28;20072;-67
2022/01/19 08:17:16;;;;;;;26.83;12.68;;;;;;;0.93;100.00;99679.50;5007076;28;20030;-67
2022/01/19 08:19:42;;;;;;;34.55;11.70;;;;;;;1.00;100.00;99681.47;5006982;28;20030;-67
2022/01/19 08:22:07;;;;;;;23.23;10.95;;;;;;;0.98;100.00;99683.16;5007017;28;20026;-67
2022/01/19 08:24:33;;;;;;;28.50;11.40;;;;;;;1.03;99.50;99686.78;5006869;28;20084;-67
2022/01/19 08:26:59;;;;;;;30.08;12.98;;;;;;;1.10;99.64;99693.91;5006703;28;20109;-67
2022/01/19 08:29:24;;;;;;;23.98;12.15;;;;;;;1.18;99.53;99689.91;5006730;28;20029;-67
2022/01/19 08:31:50;;;;;;;23.92;11.77;;;;;;;1.24;99.40;99682.31;5006781;28;20049;-67
2022/01/19 08:34:17;;;;;;;34.53;13.35;;;;;;;1.30;99.09;99677.34;5006944;28;20056;-67
2022/01/19 08:36:43;;;;;;;33.35;13.15;;;;;;;1.34;99.06;99674.03;5005530;28;20425;-67
2022/01/19 08:39:08;;;;;;;21.92;11.48;;;;;;;1.35;98.88;99670.59;5006687;28;20030;-67
2022/01/19 08:41:34;;;;;;;23.95;11.82;;;;;;;1.37;99.04;99671.53;5006822;28;20357;-67
2022/01/19 08:43:59;;;;;;;29.98;11.88;;;;;;;1.38;98.86;99670.69;5006542;28;20049;-67
2022/01/19 08:46:25;;;;;;;28.67;13.65;;;;;;;1.33;99.07;99674.84;5006545;28;20072;-67
2022/01/19 08:48:50;;;;;;;29.40;12.73;;;;;;;1.47;99.06;99671.00;5006463;28;20026;-67
2022/01/19 08:51:15;;;;;;;32.10;12.70;;;;;;;1.53;98.92;99666.00;5006335;28;20034;-67
2022/01/19 08:53:41;;;;;;;25.75;11.10;;;;;;;1.54;98.46;99662.56;5006379;28;20314;-67
2022/01/19 08:56:07;;;;;;;23.67;9.77;;;;;;;1.61;97.89;99669.72;5006321;28;20034;-67
2022/01/19 08:58:32;;;;;;;33.83;12.45;;;;;;;1.58;98.41;99670.50;5006202;28;20027;-67
2022/01/19 09:00:57;;;;;;;28.40;12.65;;;;;;;1.47;98.17;99650.25;5006326;28;20022;-67
2022/01/19 09:03:23;;;;;;;26.50;12.30;;;;;;;1.52;98.12;99648.69;5006415;28;20310;-67
2022/01/19 09:05:48;;;;;;;31.17;13.27;;;;;;;1.55;97.79;99653.97;5006114;28;20246;-67
2022/01/19 09:08:14;;;;;;;33.35;11.45;;;;;;;1.60;97.62;99655.00;5006086;28;20034;-67
2022/01/19 09:10:40;;;;;;;23.42;11.18;;;;;;;1.58;97.65;99651.50;5005978;28;20041;-67
2022/01/19 09:13:07;;;;;;;23.15;11.15;;;;;;;1.70;97.65;99638.88;5006243;28;20246;-67
2022/01/19 09:15:32;;;;;;;23.77;11.13;;;;;;;1.70;97.35;99641.47;5006155;28;20023;-67
2022/01/19 09:17:57;;;;;;;24.48;11.10;;;;;;;1.70;97.20;99638.88;5006135;28;20029;-67
2022/01/19 09:20:25;;;;;;;21.23;10.10;;;;;;;1.76;97.10;99639.06;5005856;28;20025;-67
2022/01/19 09:22:51;;;;;;;27.23;12.60;;;;;;;1.75;97.25;99634.72;5005830;28;20084;-67
2022/01/19 09:25:16;;;;;;;26.13;9.48;;;;;;;1.78;97.61;99642.59;5005908;28;20306;-67
2022/01/19 09:27:42;;;;;;;26.60;11.75;;;;;;;1.79;97.14;99639.16;5005639;28;20101;-67
2022/01/19 09:30:11;;;;;;;23.73;11.88;;;;;;;1.74;96.96;99635.56;5005565;28;20081;-67
2022/01/19 09:32:39;;;;;;;26.88;11.65;;;;;;;1.75;97.19;99640.81;5005568;28;20314;-67
2022/01/19 09:35:08;;;;;;;29.17;12.73;;;;;;;1.75;97.51;99643.41;5005529;28;20026;-67
2022/01/19 09:37:36;;;;;;;27.48;12.00;;;;;;;1.79;97.33;99634.88;5005797;28;20029;-67
2022/01/19 09:40:04;;;;;;;18.20;9.77;;;;;;;1.94;96.86;99630.16;5005493;28;20018;-67
2022/01/19 09:42:30;;;;;;;28.80;10.13;;;;;;;2.04;96.50;99641.69;5005348;28;20076;-67
2022/01/19 09:44:56;;;;;;;27.77;10.70;;;;;;;2.19;96.51;99635.22;5005391;28;20045;-67
2022/01/19 09:47:21;;;;;;;23.98;11.48;;;;;;;2.13;96.07;99631.56;5005132;28;20033;-67
2022/01/19 09:49:47;;;;;;;29.55;12.30;;;;;;;2.05;95.88;99627.84;5005246;28;20022;-67
2022/01/19 09:52:12;;;;;;;29.98;12.60;;;;;;;2.08;95.84;99622.75;5005266;28;20018;-67
2022/01/19 09:54:38;;;;;;;22.30;10.55;;;;;;;2.16;95.71;99631.66;5005244;28;20022;-67
2022/01/19 09:57:04;;;;;;;30.17;11.43;;;;;;;2.04;95.91;99620.91;5005222;28;20318;-67
2022/01/19 09:59:29;;;;;;;29.77;11.52;;;;;;;2.14;96.32;99622.94;5005165;28;20033;-67
2022/01/19 10:02:07;;;;;;;29.50;11.27;;;;;;;2.08;95.94;99617.56;5005273;28;20372;-67
2022/01/19 10:04:39;;;;;;;26.73;11.52;;;;;;;2.08;95.89;99610.66;5005111;28;20219;-67
2022/01/19 10:07:22;;;;;;;19.17;9.65;;;;;;;2.18;96.66;99619.59;5005010;28;20138;-67
2022/01/19 10:09:52;;;;;;;21.33;11.07;;;;;;;2.23;95.85;99610.22;5004889;28;20033;-67
2022/01/19 10:18:08;;;;;;;30.75;13.25;;;;;;;2.20;96.40;99603.22;5004868;28;20210;-67
2022/01/19 10:20:34;;;;;;;24.33;11.07;;;;;;;2.29;95.93;99602.59;5004750;28;20022;-67
2022/01/19 10:22:59;;;;;;;27.73;11.82;;;;;;;2.26;95.96;99607.72;5004725;28;20096;-67
2022/01/19 10:25:44;;;;;;;22.02;10.95;;;;;;;2.31;95.96;99608.69;5004708;28;20037;-67
2022/01/19 10:28:10;;;;;;;31.23;13.32;;;;;;;2.32;95.87;99613.09;5004428;28;20384;-67
2022/01/19 10:30:35;;;;;;;26.65;11.95;;;;;;;2.25;96.00;99608.56;5004622;28;20093;-67
2022/01/19 10:33:02;;;;;;;32.65;13.18;;;;;;;2.25;96.32;99606.81;5004743;28;20022;-67
2022/01/19 10:35:36;;;;;;;27.98;12.00;;;;;;;2.33;95.94;99609.66;5004857;28;20064;-67
2022/01/19 10:38:08;;;;;;;26.92;12.43;;;;;;;2.43;96.19;99609.06;5004769;28;20026;-67
2022/01/19 10:40:34;;;;;;;;;;;;;;;2.40;95.55;99611.56;5005240;28;20209;-67
2022/01/19 10:43:20;;;;;;;26.30;10.20;;;;;;;2.50;95.61;99613.59;5004508;28;19906;-67
2022/01/19 10:45:45;;;;;;;32.53;12.48;;;;;;;2.44;95.88;99603.03;5004404;28;20093;-68
2022/01/19 10:48:10;;;;;;;25.02;11.45;;;;;;;2.51;95.21;99610.16;5004508;28;20026;-68
2022/01/19 10:50:36;;;;;;;27.92;11.75;;;;;;;2.51;95.81;99610.16;5004410;28;20029;-68
2022/01/19 10:53:04;;;;;;;28.38;12.52;;;;;;;2.49;95.22;99601.44;5004425;28;20090;-68
2022/01/19 10:55:33;;;;;;;28.08;11.52;;;;;;;2.51;95.85;99594.56;5004411;28;20053;-68
2022/01/19 10:58:00;;;;;;;29.83;11.00;;;;;;;2.49;95.91;99584.97;5004434;28;20085;-68
2022/01/19 11:00:36;;;;;;;33.45;12.82;;;;;;;2.47;96.08;99582.34;5006105;28;20030;-68
2022/01/19 11:03:19;;;;;;;27.05;11.15;;;;;;;2.53;95.80;99577.28;5008389;28;20068;-68
2022/01/19 11:05:46;;;;;;;26.80;11.57;;;;;;;2.54;96.43;99580.78;5008375;28;20230;-68
2022/01/19 11:08:12;;;;;;;24.67;11.57;;;;;;;2.58;96.27;99575.72;5008286;28;20033;-68
2022/01/19 11:10:38;;;;;;;24.92;11.73;;;;;;;2.60;95.91;99570.56;5008064;28;20314;-68
2022/01/19 11:13:12;;;;;;;33.78;12.30;;;;;;;2.65;95.82;99572.44;5016004;28;20109;-68
2022/01/19 11:15:37;;;;;;;34.03;12.13;;;;;;;2.59;96.12;99577.47;5018609;28;20341;-68
2022/01/19 11:18:03;;;;;;;36.10;12.65;;;;;;;2.59;96.11;99569.66;5016725;28;20023;-68
2022/01/19 11:20:29;;;;;;;27.38;11.95;;;;;;;2.62;96.27;99561.94;5017638;28;20076;-68
2022/01/19 11:23:07;;;;;;;29.25;11.70;;;;;;;2.62;95.96;99556.75;5018577;28;20026;-68
2022/01/19 11:26:07;;;;;;;35.70;13.23;;;;;;;2.61;95.54;99555.00;5020463;28;20368;-68
2022/01/19 11:28:36;;;;;;;30.83;11.90;;;;;;;2.55;96.15;99554.84;5016788;28;20102;-68
2022/01/19 11:31:10;;;;;;;31.45;12.27;;;;;;;2.64;96.22;99544.69;5014439;28;20353;-68
2022/01/19 11:33:41;;;;;;;29.40;11.45;;;;;;;2.57;95.83;99545.38;5026840;28;20018;-68
2022/01/19 11:36:23;;;;;;;31.45;12.82;;;;;;;2.55;96.52;99544.44;5026508;28;20026;-68
2022/01/19 11:39:10;;;;;;;36.47;13.90;;;;;;;2.59;96.12;99546.28;5024563;28;20028;-68
2022/01/19 11:41:54;;;;;;;25.83;11.15;;;;;;;2.52;96.09;99531.38;5006821;28;20033;-68
2022/01/19 11:44:28;;;;;;;26.38;10.63;;;;;;;2.65;96.27;99536.03;5006551;28;20033;-68
2022/01/19 11:46:55;;;;;;;24.15;12.20;;;;;;;2.70;96.39;99539.66;5006720;28;20057;-68
2022/01/19 11:49:56;;;;;;;36.55;12.23;;;;;;;2.62;96.36;99541.16;5006558;28;20243;-68
2022/01/19 11:52:47;;;;;;;25.42;11.93;;;;;;;2.67;96.17;99544.78;4995199;28;20097;-68
2022/01/19 11:55:20;;;;;;;29.95;11.77;;;;;;;2.74;96.59;99531.09;5006062;28;20093;-68
2022/01/19 11:57:48;;;;;;;33.13;12.77;;;;;;;2.67;96.36;99523.97;5006527;28;20034;-68
2022/01/19 12:00:30;;;;;;;34.65;11.65;;;;;;;2.74;96.66;99520.69;5006451;28;20041;-68
2022/01/19 12:02:58;;;;;;;23.10;10.80;;;;;;;2.78;96.62;99517.31;5006451;28;20325;-68
2022/01/19 12:05:44;;;;;;;28.95;10.70;;;;;;;2.69;96.53;99511.88;5006332;28;20026;-68
2022/01/19 12:08:24;;;;;;;32.22;13.60;;;;;;;2.73;96.63;99498.16;5005686;28;20041;-68
2022/01/19 12:10:54;;;;;;;31.02;13.25;;;;;;;2.74;96.66;99499.91;5006081;28;20338;-68
2022/01/19 12:13:29;;;;;;;34.58;13.95;;;;;;;2.73;96.45;99498.16;5006494;28;20061;-68
2022/01/19 12:16:03;;;;;;;31.65;12.32;;;;;;;2.75;96.63;99499.03;5006146;28;20026;-68
2022/01/19 12:18:47;;;;;;;32.17;12.95;;;;;;;2.75;96.27;99496.44;5006418;28;20303;-68
2022/01/19 12:21:32;;;;;;;35.17;11.80;;;;;;;2.77;96.75;99494.78;5005813;28;20026;-68
2022/01/19 12:24:19;;;;;;;32.97;11.77;;;;;;;2.83;96.58;99483.63;5002099;28;20096;-68
2022/01/19 12:27:01;;;;;;;33.90;12.77;;;;;;;2.78;96.82;99483.53;5005977;28;20049;-68
2022/01/19 12:29:33;;;;;;;33.47;13.60;;;;;;;2.79;97.07;99481.81;5006117;28;20022;-68
2022/01/19 12:32:04;;;;;;;37.58;15.13;;;;;;;2.79;96.79;99477.50;5008261;28;20052;-68
2022/01/19 12:34:49;;;;;;;41.85;13.75;;;;;;;2.77;97.07;99468.78;5010545;28;20034;-68
2022/01/19 12:37:27;;;;;;;30.42;11.57;;;;;;;2.85;97.29;99467.22;5007724;28;20033;-68
2022/01/19 12:39:54;;;;;;;30.13;12.23;;;;;;;2.92;96.61;99469.16;5023436;28;20103;-68
2022/01/19 12:42:26;;;;;;;37.67;13.63;;;;;;;2.86;96.24;99452.53;5025228;28;20068;-68
2022/01/19 12:44:57;;;;;;;33.30;11.43;;;;;;;2.95;96.74;99463.16;5025531;28;20244;-68
2022/01/19 12:47:28;;;;;;;30.80;11.88;;;;;;;2.97;96.11;99467.53;5024519;28;20229;-68
2022/01/19 12:50:08;;;;;;;35.42;12.95;;;;;;;2.86;96.39;99462.91;5025850;28;20252;-68
2022/01/19 12:52:40;;;;;;;30.98;12.60;;;;;;;2.97;96.65;99446.72;5024724;28;20322;-68
2022/01/19 12:55:10;;;;;;;;;;;;;;;2.97;96.09;99441.53;5025505;28;20317;-68
2022/01/19 12:57:36;;;;;;;31.30;11.98;;;;;;;2.98;95.90;99443.31;5024974;28;19905;-68
2022/01/19 13:00:05;;;;;;;29.75;11.90;;;;;;;2.96;95.61;99434.59;5024961;28;20028;-68